Chester, United Kingdom
Current Conditions -  °F | °C
As of 2:50 PM on Friday 24 Oct 2014 (Local Time) from EGNR Reporting Station
Broken Clouds Broken Clouds  
Wind Chill: 15°   Ceiling: 4000
Heat Index: 15°   Visibility: 6mi
Dew Point: 10°   Wind: 9mph
Humidity: 72%   Direction: 240°WSW
Pressure: 29.88"   Gusts: NA
Location:  53.19°N, 2.89°W
Report Text: EGNR 241350Z 24008KT 210V270 9999 FEW012 SCT025 BKN040 15/10 Q1012
Loading
Personal Weather Stations






























Interactive Weather Map
Tropical Storm Tracking
New forecast layout! Learn more

10-Day Weather Forecast

Advertisements
Track Severe Weather on mobile